KOLS/OLS METAR and TAF weather

Enter ICAO airport designator
Station Type Date Time Source
KOLS METAR 2020/11/25 22:54 UTC NOAA

KOLS 252254Z AUTO 25005KT 10SM CLR 21/M06 A3006 RMK AO2 SLP146 T02111061


Station Type Date Time Source
KOLS Decoded METAR 2020/11/25 22:54 UTC NOAA

NOGALES INTERNATIONAL AIRPORT , AZ, United States (KOLS) 31-25N 110-51W 1184M
Nov 25, 2020 - 05:54 PM EST / 2020.11.25 2254 UTC
Wind: from the WSW (250 degrees) at 6 MPH (5 KT):0
Visibility: 10 mile(s):0
Sky conditions: clear
Temperature: 70.0 F (21.1 C)
Dew Point: 21.0 F (-6.1 C)
Relative Humidity: 15%
Pressure (altimeter): 30.06 in. Hg (1017 hPa)
ob: KOLS 252254Z AUTO 25005KT 10SM CLR 21/M06 A3006 RMK AO2 SLP146 T02111061
cycle: 23

Station Type Date Time Source
KOLS TAF 2020/11/25 18:22 UTC NOAA

TAF KOLS 251720Z 2518/2618 21004KT P6SM SKC
FM252000 26007KT P6SM SKC
FM260200 VRB03KT P6SM SKC

Example: see airport list